createdAt,value
2018-07-24T00:00:45.568Z,21.49
2018-07-24T00:03:16.806Z,21.42
2018-07-24T00:05:49.320Z,21.40
2018-07-24T00:08:20.661Z,21.27
2018-07-24T00:10:51.933Z,21.31
2018-07-24T00:13:23.167Z,21.39
2018-07-24T00:15:55.306Z,21.39
2018-07-24T00:18:28.043Z,21.39
2018-07-24T00:20:59.388Z,21.35
2018-07-24T00:23:31.216Z,21.34
2018-07-24T00:26:02.218Z,21.41
2018-07-24T00:28:33.727Z,21.47
2018-07-24T00:31:05.929Z,21.47
2018-07-24T00:33:37.970Z,21.53
2018-07-24T00:36:09.181Z,21.61
2018-07-24T00:38:40.644Z,21.68
2018-07-24T00:41:11.636Z,21.73
2018-07-24T00:43:42.756Z,21.71
2018-07-24T00:46:14.935Z,21.21
2018-07-24T00:48:46.026Z,21.68
2018-07-24T00:51:17.137Z,21.73
2018-07-24T00:53:48.740Z,21.68
2018-07-24T00:56:20.783Z,21.67
2018-07-24T00:58:53.139Z,21.57
2018-07-24T01:01:24.336Z,21.51
2018-07-24T01:03:55.475Z,21.49
2018-07-24T01:06:26.656Z,21.51
2018-07-24T01:08:58.780Z,21.44
2018-07-24T01:11:30.022Z,21.46
2018-07-24T01:14:01.489Z,21.46
2018-07-24T01:16:32.525Z,21.38
2018-07-24T01:19:03.702Z,21.39
2018-07-24T01:21:34.984Z,21.26
2018-07-24T01:24:07.331Z,21.22
2018-07-24T01:26:38.700Z,21.18
2018-07-24T01:29:09.935Z,21.19
2018-07-24T01:31:41.065Z,21.14
2018-07-24T01:34:12.592Z,21.11
2018-07-24T01:36:43.688Z,21.08
2018-07-24T01:39:14.661Z,21.22
2018-07-24T01:41:47.977Z,21.18
2018-07-24T01:44:19.379Z,21.17
2018-07-24T01:46:50.537Z,21.11
2018-07-24T01:49:23.272Z,21.09
2018-07-24T01:51:54.653Z,21.10
2018-07-24T01:54:26.639Z,21.07
2018-07-24T01:56:58.941Z,21.05
2018-07-24T01:59:30.436Z,21.00
2018-07-24T02:02:01.597Z,20.92
2018-07-24T02:04:42.058Z,20.86
2018-07-24T02:07:14.473Z,20.89
2018-07-24T02:09:46.121Z,20.90
2018-07-24T02:12:17.138Z,20.87
2018-07-24T02:14:50.833Z,20.89
2018-07-24T02:17:22.191Z,20.79
2018-07-24T02:19:53.475Z,20.71
2018-07-24T02:22:25.109Z,20.65
2018-07-24T02:24:56.848Z,20.70
2018-07-24T02:27:28.613Z,20.53
2018-07-24T02:29:59.901Z,20.53
2018-07-24T02:32:33.380Z,20.55
2018-07-24T02:35:04.805Z,20.58
2018-07-24T02:37:36.821Z,20.52
2018-07-24T02:40:08.354Z,20.60
2018-07-24T02:42:39.353Z,20.52
2018-07-24T02:45:12.077Z,20.45
2018-07-24T02:47:43.159Z,20.46
2018-07-24T02:50:14.476Z,20.43
2018-07-24T02:52:45.580Z,20.37
2018-07-24T02:55:17.773Z,20.37
2018-07-24T02:57:48.959Z,20.35
2018-07-24T03:00:20.067Z,20.38
2018-07-24T03:02:51.410Z,20.37
2018-07-24T03:05:22.564Z,20.46
2018-07-24T03:07:54.966Z,20.45
2018-07-24T03:10:26.152Z,20.48
2018-07-24T03:12:57.095Z,20.46
2018-07-24T03:15:28.975Z,20.52
2018-07-24T03:18:00.165Z,20.56
2018-07-24T03:20:31.761Z,20.72
2018-07-24T03:23:03.229Z,20.70
2018-07-24T03:25:35.053Z,20.79
2018-07-24T03:28:06.420Z,20.94
2018-07-24T03:30:37.355Z,21.05
2018-07-24T03:33:09.282Z,21.01
2018-07-24T03:35:41.829Z,21.09
2018-07-24T03:38:12.815Z,21.12
2018-07-24T03:40:44.151Z,21.17
2018-07-24T03:43:15.532Z,21.23
2018-07-24T03:45:47.198Z,21.31
2018-07-24T03:48:18.445Z,21.50
2018-07-24T03:50:49.537Z,21.85
2018-07-24T03:54:57.664Z,22.19
2018-07-24T03:57:28.859Z,22.52
2018-07-24T03:59:59.862Z,22.69
2018-07-24T04:02:31.091Z,22.81
2018-07-24T04:05:02.126Z,22.88
2018-07-24T04:07:33.543Z,23.00
2018-07-24T04:10:04.791Z,23.21
2018-07-24T04:12:36.004Z,23.29
2018-07-24T04:15:08.066Z,23.70
2018-07-24T04:17:39.372Z,23.71
2018-07-24T04:20:10.726Z,24.14
2018-07-24T04:22:43.587Z,24.25
2018-07-24T04:25:14.895Z,24.87
2018-07-24T04:27:49.688Z,25.05
2018-07-24T04:30:21.829Z,25.49
2018-07-24T04:32:52.894Z,25.97
2018-07-24T04:35:23.895Z,26.64
2018-07-24T04:37:55.122Z,26.70
2018-07-24T04:40:27.335Z,26.19
2018-07-24T04:42:59.037Z,25.83
2018-07-24T04:45:29.937Z,25.32
2018-07-24T04:48:00.922Z,25.30
2018-07-24T04:50:32.121Z,25.17
2018-07-24T04:53:03.181Z,24.60
2018-07-24T05:27:27.978Z,24.88
2018-07-24T05:30:00.076Z,24.75
2018-07-24T05:32:31.087Z,25.15
2018-07-24T05:35:02.252Z,24.72
2018-07-24T05:37:34.711Z,24.72
2018-07-24T05:40:05.979Z,24.29
2018-07-24T05:42:37.264Z,23.93
2018-07-24T05:45:09.001Z,24.25
2018-07-24T05:47:40.303Z,24.28
2018-07-24T05:50:11.468Z,24.75
2018-07-24T05:52:42.669Z,25.05
2018-07-24T05:55:13.794Z,24.99
2018-07-24T05:57:45.714Z,24.69
2018-07-24T06:00:16.897Z,24.86
2018-07-24T06:02:49.756Z,25.15
2018-07-24T06:05:21.048Z,25.05
2018-07-24T06:07:52.636Z,24.70
2018-07-24T06:10:23.705Z,24.70
2018-07-24T06:15:36.362Z,24.42
2018-07-24T06:18:08.026Z,24.49
2018-07-24T06:20:39.516Z,24.65
2018-07-24T06:23:11.017Z,24.82
2018-07-24T06:25:43.106Z,24.70
2018-07-24T06:28:14.371Z,24.66
2018-07-24T06:30:46.412Z,24.76
2018-07-24T06:33:17.211Z,25.17
2018-07-24T06:35:50.525Z,25.17
2018-07-24T06:38:22.758Z,24.95
2018-07-24T06:40:54.726Z,25.40
2018-07-24T06:43:26.602Z,25.21
2018-07-24T06:45:58.584Z,25.91
2018-07-24T06:48:29.538Z,26.15
2018-07-24T06:51:00.903Z,25.83
2018-07-24T06:53:32.376Z,25.84
2018-07-24T06:56:03.565Z,25.83
2018-07-24T06:58:34.851Z,25.70
2018-07-24T07:01:05.942Z,25.57
2018-07-24T07:03:37.038Z,25.71
2018-07-24T07:06:08.410Z,25.62
2018-07-24T07:08:41.245Z,25.70
2018-07-24T07:11:12.693Z,25.36
2018-07-24T07:13:44.060Z,25.08
2018-07-24T07:16:15.553Z,25.35
2018-07-24T07:18:46.958Z,25.52
2018-07-24T07:21:18.080Z,25.23
2018-07-24T07:23:49.349Z,25.21
2018-07-24T07:26:20.699Z,25.33
2018-07-24T07:28:52.126Z,25.64
2018-07-24T07:31:24.024Z,25.36
2018-07-24T07:33:55.995Z,25.03
2018-07-24T07:36:28.517Z,25.21
2018-07-24T07:38:59.880Z,24.97
2018-07-24T07:41:31.104Z,25.33
2018-07-24T07:44:02.610Z,26.05
2018-07-24T07:46:34.373Z,26.13
2018-07-24T07:49:05.969Z,26.47
2018-07-24T07:51:37.355Z,26.38
2018-07-24T07:54:09.758Z,26.85
2018-07-24T07:56:41.058Z,27.01
2018-07-24T07:59:12.747Z,27.37
2018-07-24T08:01:44.131Z,26.59
2018-07-24T08:04:15.569Z,26.20
2018-07-24T08:06:46.515Z,26.27
2018-07-24T08:09:17.777Z,26.18
2018-07-24T08:11:48.941Z,26.07
2018-07-24T08:14:20.019Z,26.04
2018-07-24T08:16:53.281Z,26.30
2018-07-24T08:19:24.700Z,26.30
2018-07-24T08:21:57.258Z,26.60
2018-07-24T08:24:28.550Z,26.74
2018-07-24T08:27:00.413Z,27.29
2018-07-24T08:29:32.806Z,27.65
2018-07-24T08:32:04.316Z,27.42
2018-07-24T08:34:36.474Z,27.60
2018-07-24T08:37:08.283Z,27.11
2018-07-24T08:39:39.695Z,27.49
2018-07-24T08:42:10.922Z,27.57
2018-07-24T08:44:41.984Z,27.24
2018-07-24T08:47:13.131Z,27.60
2018-07-24T08:49:45.474Z,27.81
2018-07-24T08:52:16.602Z,27.67
2018-07-24T08:54:48.122Z,27.16
2018-07-24T08:57:19.665Z,27.66
2018-07-24T08:59:50.464Z,28.12
2018-07-24T09:02:21.335Z,28.00
2018-07-24T09:04:52.657Z,27.99
2018-07-24T09:07:23.958Z,28.43
2018-07-24T09:09:54.985Z,27.84
2018-07-24T09:12:28.179Z,27.52
2018-07-24T09:14:59.345Z,27.78
2018-07-24T09:17:30.433Z,27.76
2018-07-24T09:20:01.788Z,27.51
2018-07-24T09:22:33.176Z,27.28
2018-07-24T09:25:04.627Z,27.62
2018-07-24T09:27:36.308Z,27.66
2018-07-24T09:30:07.340Z,28.09
2018-07-24T09:32:38.648Z,28.24
2018-07-24T09:35:09.745Z,28.00
2018-07-24T09:37:40.941Z,28.18
2018-07-24T09:40:12.455Z,27.87
2018-07-24T09:42:44.274Z,28.18
2018-07-24T09:45:15.367Z,28.63
2018-07-24T09:47:46.640Z,28.55
2018-07-24T09:50:17.840Z,28.89
2018-07-24T09:52:50.412Z,28.75
2018-07-24T09:55:21.555Z,28.22
2018-07-24T09:57:54.915Z,28.12
2018-07-24T10:00:32.746Z,28.13
2018-07-24T10:03:05.438Z,28.04
2018-07-24T10:05:36.642Z,27.97
2018-07-24T10:08:08.250Z,27.59
2018-07-24T10:10:39.648Z,27.56
2018-07-24T10:13:10.791Z,27.64
2018-07-24T10:15:42.883Z,27.67
2018-07-24T10:18:14.037Z,27.84
2018-07-24T10:20:45.916Z,28.19
2018-07-24T10:23:17.077Z,28.16
2018-07-24T10:25:47.777Z,28.41
2018-07-24T10:28:18.887Z,28.17
2018-07-24T10:30:51.344Z,27.62
2018-07-24T10:33:22.616Z,27.86
2018-07-24T10:35:53.704Z,28.15
2018-07-24T10:38:25.760Z,28.04
2018-07-24T10:40:56.869Z,27.52
2018-07-24T10:43:28.213Z,27.51
2018-07-24T10:46:01.515Z,27.19
2018-07-24T10:48:33.576Z,27.36
2018-07-24T10:51:05.468Z,26.82
2018-07-24T10:53:36.630Z,27.18
2018-07-24T10:56:07.808Z,27.45
2018-07-24T10:58:39.253Z,27.14
2018-07-24T11:01:10.795Z,27.60
2018-07-24T11:03:42.153Z,27.38
2018-07-24T11:06:13.184Z,27.67
2018-07-24T11:08:45.907Z,28.11
2018-07-24T11:11:17.536Z,27.51
2018-07-24T11:13:48.945Z,28.28
2018-07-24T11:16:20.457Z,28.35
2018-07-24T11:18:51.904Z,28.00
2018-07-24T11:21:23.292Z,28.53
2018-07-24T11:23:54.446Z,29.20
2018-07-24T11:26:27.357Z,29.68
2018-07-24T11:28:59.424Z,29.94
2018-07-24T11:31:30.931Z,29.86
2018-07-24T11:34:03.016Z,30.07
2018-07-24T11:36:35.172Z,29.56
2018-07-24T11:39:10.807Z,29.91
2018-07-24T11:41:43.013Z,29.89
2018-07-24T11:44:14.062Z,29.88
2018-07-24T11:46:45.237Z,29.97
2018-07-24T11:49:17.612Z,30.17
2018-07-24T11:51:49.899Z,30.30
2018-07-24T11:54:21.220Z,30.60
2018-07-24T11:56:52.823Z,30.96
2018-07-24T11:59:24.103Z,30.90
2018-07-24T12:01:56.221Z,31.22
2018-07-24T12:04:27.665Z,30.94
2018-07-24T12:07:01.120Z,31.01
2018-07-24T12:09:33.875Z,30.97
2018-07-24T12:12:05.144Z,30.25
2018-07-24T12:14:37.562Z,30.04
2018-07-24T12:17:09.441Z,29.91
2018-07-24T12:19:40.703Z,29.42
2018-07-24T12:22:12.205Z,28.96
2018-07-24T12:24:43.611Z,28.65
2018-07-24T12:27:14.972Z,28.33
2018-07-24T12:29:46.704Z,28.13
2018-07-24T12:32:18.265Z,28.09
2018-07-24T12:34:50.371Z,28.28
2018-07-24T12:37:21.713Z,28.41
2018-07-24T12:39:53.799Z,28.42
2018-07-24T12:42:25.326Z,28.50
2018-07-24T12:44:56.894Z,28.00
2018-07-24T12:47:33.000Z,27.03
2018-07-24T12:50:06.333Z,26.41
2018-07-24T12:52:38.802Z,26.46
2018-07-24T12:55:10.346Z,26.15
2018-07-24T12:57:43.043Z,25.82
2018-07-24T13:00:15.966Z,25.87
2018-07-24T13:02:47.791Z,25.90
2018-07-24T13:05:20.870Z,26.01
2018-07-24T13:07:52.572Z,25.87
2018-07-24T13:10:24.518Z,25.91
2018-07-24T13:12:56.048Z,25.71
2018-07-24T13:15:28.511Z,25.32
2018-07-24T13:17:59.918Z,25.16
2018-07-24T13:20:31.834Z,24.86
2018-07-24T13:23:03.019Z,24.22
2018-07-24T13:25:34.354Z,23.80
2018-07-24T13:28:05.744Z,23.37
2018-07-24T13:30:37.200Z,22.84
2018-07-24T13:33:09.569Z,22.53
2018-07-24T13:35:40.844Z,22.56
2018-07-24T13:38:12.116Z,22.52
2018-07-24T13:40:43.513Z,22.46
2018-07-24T13:43:15.777Z,22.39
2018-07-24T13:45:46.950Z,22.18
2018-07-24T13:48:19.645Z,22.11
2018-07-24T13:50:51.180Z,22.18
2018-07-24T13:53:22.634Z,22.19
2018-07-24T13:55:54.174Z,22.18
2018-07-24T13:58:26.021Z,22.21
2018-07-24T14:00:58.453Z,22.26
2018-07-24T14:03:30.827Z,22.33
2018-07-24T14:06:04.343Z,22.37
2018-07-24T14:08:36.720Z,22.62
2018-07-24T14:11:08.248Z,22.94
2018-07-24T14:13:39.804Z,23.12
2018-07-24T14:16:11.321Z,23.31
2018-07-24T14:18:42.967Z,23.37
2018-07-24T14:21:15.233Z,23.25
2018-07-24T14:23:47.080Z,23.31
2018-07-24T14:28:56.204Z,23.49
2018-07-24T14:31:27.562Z,23.60
2018-07-24T14:33:58.512Z,23.73
2018-07-24T14:36:31.315Z,23.94
2018-07-24T14:39:02.601Z,24.01
2018-07-24T14:41:33.673Z,24.12
2018-07-24T14:44:05.680Z,24.28
2018-07-24T14:46:39.281Z,24.46
2018-07-24T14:49:12.730Z,24.40
2018-07-24T14:51:43.964Z,24.44
2018-07-24T14:54:15.064Z,24.44
2018-07-24T14:56:46.449Z,24.56
2018-07-24T14:59:17.462Z,24.16
2018-07-24T15:01:48.539Z,24.11
2018-07-24T15:04:20.097Z,24.16
2018-07-24T15:06:51.474Z,24.33
2018-07-24T15:09:27.940Z,23.96
2018-07-24T15:11:59.623Z,23.83
2018-07-24T15:14:30.646Z,23.89
2018-07-24T15:17:01.769Z,23.76
2018-07-24T15:19:33.102Z,23.81
2018-07-24T15:22:05.280Z,23.86
2018-07-24T15:24:36.633Z,23.75
2018-07-24T15:27:08.800Z,23.84
2018-07-24T15:29:39.949Z,24.02
2018-07-24T15:32:11.220Z,24.12
2018-07-24T15:34:42.367Z,23.90
2018-07-24T15:37:15.075Z,23.84
2018-07-24T15:39:46.130Z,23.84
2018-07-24T15:42:18.461Z,23.92
2018-07-24T15:44:50.753Z,23.98
2018-07-24T15:47:21.953Z,24.06
2018-07-24T15:49:53.677Z,24.02
2018-07-24T15:52:25.268Z,24.00
2018-07-24T15:54:56.546Z,24.03
2018-07-24T15:57:27.602Z,24.03
2018-07-24T15:59:59.670Z,24.12
2018-07-24T16:02:31.294Z,24.15
2018-07-24T16:05:02.669Z,23.83
2018-07-24T16:07:34.066Z,23.80
2018-07-24T16:10:05.711Z,23.95
2018-07-24T16:12:37.578Z,23.58
2018-07-24T16:15:09.976Z,23.52
2018-07-24T16:17:42.644Z,23.50
2018-07-24T16:20:14.324Z,23.53
2018-07-24T16:22:45.675Z,23.38
2018-07-24T16:25:17.069Z,23.40
2018-07-24T16:27:48.622Z,23.48
2018-07-24T16:30:21.810Z,23.43
2018-07-24T16:32:54.293Z,23.43
2018-07-24T16:35:26.225Z,23.30
2018-07-24T16:37:59.209Z,23.40
2018-07-24T16:40:31.512Z,23.52
2018-07-24T16:43:02.633Z,23.55
2018-07-24T16:45:34.501Z,23.48
2018-07-24T16:48:05.846Z,23.37
2018-07-24T16:50:37.468Z,23.18
2018-07-24T16:53:08.669Z,23.21
2018-07-24T16:55:40.848Z,23.21
2018-07-24T16:58:12.645Z,23.28
2018-07-24T17:00:43.857Z,23.28
2018-07-24T17:03:16.833Z,23.13
2018-07-24T17:05:51.524Z,23.05
2018-07-24T17:08:24.183Z,22.96
2018-07-24T17:10:57.112Z,22.92
2018-07-24T17:13:29.683Z,22.83
2018-07-24T17:16:01.341Z,22.82
2018-07-24T17:18:32.894Z,22.77
2018-07-24T17:21:04.304Z,22.70
2018-07-24T17:23:36.421Z,22.68
2018-07-24T17:26:08.364Z,22.57
2018-07-24T17:28:41.733Z,22.51
2018-07-24T17:31:13.431Z,22.50
2018-07-24T17:33:46.044Z,22.49
2018-07-24T17:36:17.319Z,22.44
2018-07-24T17:38:48.462Z,22.48
2018-07-24T17:41:20.145Z,22.52
2018-07-24T17:43:54.417Z,22.55
2018-07-24T17:46:26.291Z,22.51
2018-07-24T17:48:57.470Z,22.41
2018-07-24T17:51:29.836Z,22.33
2018-07-24T17:54:01.678Z,22.24
2018-07-24T17:56:34.349Z,22.25
2018-07-24T17:59:07.450Z,22.30
2018-07-24T18:01:38.584Z,22.30
2018-07-24T18:04:09.705Z,22.25
2018-07-24T18:06:41.321Z,22.28
2018-07-24T18:09:14.220Z,22.21
2018-07-24T18:11:45.901Z,22.16
2018-07-24T18:14:18.430Z,22.16
2018-07-24T18:16:50.996Z,22.14
2018-07-24T18:19:24.170Z,22.15
2018-07-24T18:21:56.248Z,22.05
2018-07-24T18:24:29.972Z,22.06
2018-07-24T18:27:01.053Z,22.11
2018-07-24T18:29:33.839Z,22.01
2018-07-24T18:32:05.160Z,22.01
2018-07-24T18:34:37.995Z,21.92
2018-07-24T18:37:09.505Z,21.97
2018-07-24T18:39:40.917Z,22.00
2018-07-24T18:42:12.141Z,21.92
2018-07-24T18:44:43.476Z,21.96
2018-07-24T18:47:15.026Z,21.90
2018-07-24T18:49:45.780Z,21.84
2018-07-24T18:52:16.678Z,21.86
2018-07-24T18:54:47.494Z,21.87
2018-07-24T18:57:18.335Z,21.76
2018-07-24T18:59:49.366Z,21.83
2018-07-24T19:02:20.819Z,21.85
2018-07-24T19:04:53.011Z,21.88
2018-07-24T19:07:25.186Z,21.81
2018-07-24T19:09:56.129Z,21.76
2018-07-24T19:12:27.979Z,21.71
2018-07-24T19:15:01.670Z,21.71
2018-07-24T19:17:32.438Z,21.67
2018-07-24T19:20:03.155Z,21.71
2018-07-24T19:22:37.669Z,21.78
2018-07-24T19:25:08.545Z,21.77
2018-07-24T19:27:39.316Z,21.73
2018-07-24T19:30:12.166Z,21.83
2018-07-24T19:32:44.046Z,21.85
2018-07-24T19:35:17.988Z,21.85
2018-07-24T19:37:50.047Z,21.85
2018-07-24T19:40:22.491Z,21.78
2018-07-24T19:42:53.726Z,21.93
2018-07-24T19:45:25.102Z,21.87
2018-07-24T19:47:57.750Z,21.76
2018-07-24T19:50:29.008Z,21.85
2018-07-24T19:53:01.953Z,21.84
2018-07-24T19:55:33.422Z,21.89
2018-07-24T19:58:05.662Z,21.88
2018-07-24T20:00:37.318Z,21.94
2018-07-24T20:03:08.742Z,21.97
2018-07-24T20:05:40.035Z,21.96
2018-07-24T20:08:11.383Z,22.02
2018-07-24T20:10:42.452Z,21.92
2018-07-24T20:13:14.892Z,21.93
2018-07-24T20:15:46.504Z,21.79
2018-07-24T20:18:18.774Z,21.71
2018-07-24T20:20:50.262Z,21.74
2018-07-24T20:23:21.859Z,21.75
2018-07-24T20:25:52.889Z,21.80
2018-07-24T20:28:24.120Z,21.81
2018-07-24T20:30:56.417Z,21.87
2018-07-24T20:33:27.511Z,21.80
2018-07-24T20:35:58.838Z,21.79
2018-07-24T20:38:31.676Z,21.83
2018-07-24T20:41:05.890Z,21.80
2018-07-24T20:43:38.489Z,21.87
2018-07-24T20:46:10.855Z,21.86
2018-07-24T20:48:43.398Z,21.86
2018-07-24T20:51:15.284Z,21.84
2018-07-24T20:53:48.391Z,21.82
2018-07-24T20:56:22.273Z,21.75
2018-07-24T20:58:54.240Z,21.83
2018-07-24T21:01:27.727Z,21.81
2018-07-24T21:03:59.943Z,21.91
2018-07-24T21:06:35.829Z,21.87
2018-07-24T21:09:13.474Z,21.94
2018-07-24T21:11:47.510Z,21.85
2018-07-24T21:14:23.335Z,21.84
2018-07-24T21:16:58.057Z,21.86
2018-07-24T21:19:30.983Z,21.86
2018-07-24T21:22:03.712Z,21.86
2018-07-24T21:24:36.156Z,21.76
2018-07-24T21:27:09.246Z,21.79
2018-07-24T21:29:46.035Z,21.79
2018-07-24T21:32:19.627Z,21.73
2018-07-24T21:34:53.557Z,21.76
2018-07-24T21:37:27.390Z,21.74
2018-07-24T21:40:02.324Z,21.70
2018-07-24T21:42:39.197Z,21.60
2018-07-24T21:45:11.562Z,21.62
2018-07-24T21:47:43.995Z,21.65
2018-07-24T21:50:18.195Z,21.60
2018-07-24T21:52:49.567Z,21.59
2018-07-24T21:55:21.180Z,21.48
2018-07-24T21:57:53.357Z,20.53
2018-07-24T22:00:27.669Z,21.43
2018-07-24T22:02:59.819Z,21.46
2018-07-24T22:05:32.409Z,21.46
2018-07-24T22:08:04.398Z,21.49
2018-07-24T22:10:36.910Z,21.30
2018-07-24T22:13:18.100Z,21.31
2018-07-24T22:16:04.326Z,21.33
2018-07-24T22:18:47.272Z,21.26
2018-07-24T22:21:35.645Z,21.31
2018-07-24T22:24:08.809Z,21.33
2018-07-24T22:26:40.621Z,21.32
2018-07-24T22:29:12.417Z,21.30
2018-07-24T22:31:43.981Z,21.34
2018-07-24T22:34:15.216Z,21.28
2018-07-24T22:36:48.549Z,21.28
2018-07-24T22:42:33.440Z,21.30
2018-07-24T22:48:07.619Z,21.23
2018-07-24T22:50:39.721Z,21.20
2018-07-24T22:53:12.733Z,21.20
2018-07-24T22:55:44.807Z,21.19
2018-07-24T22:58:16.854Z,21.16
2018-07-24T23:00:50.155Z,21.22
2018-07-24T23:06:10.116Z,21.28
2018-07-24T23:08:42.019Z,21.26
2018-07-24T23:11:15.989Z,21.15
2018-07-24T23:13:48.599Z,21.20
2018-07-24T23:16:20.351Z,21.20
2018-07-24T23:18:52.797Z,21.26
2018-07-24T23:21:24.398Z,21.26
2018-07-24T23:23:56.264Z,21.26
2018-07-24T23:26:27.937Z,21.17
2018-07-24T23:28:59.172Z,21.26
2018-07-24T23:31:30.603Z,21.30
2018-07-24T23:34:01.918Z,21.29
2018-07-24T23:36:33.353Z,21.27
2018-07-24T23:39:05.069Z,21.28
2018-07-24T23:41:36.331Z,21.37
2018-07-24T23:44:07.436Z,21.39
2018-07-24T23:46:38.998Z,21.35
2018-07-24T23:49:10.140Z,21.30
2018-07-24T23:51:42.845Z,21.34
2018-07-24T23:54:13.941Z,21.33
2018-07-24T23:56:44.928Z,21.28
2018-07-24T23:59:15.938Z,21.24
